Phelps, Wisconsin
Current Conditions -  °F | °C
As of 8:35 AM on Thursday 23 Oct 2014 (Local Time) from KLNL Reporting Station
Moderate Rain Moderate Rain  
Wind Chill: 40°   Ceiling: 7000
Heat Index: 44°   Visibility: 10mi
Dew Point: 39°   Wind: 6mph
Humidity: 85%   Direction: 170°S
Pressure: 30.06"   Gusts: NA
Location:  46.06°N, 89.09°W
Report Text: KLNL 231335Z AUTO 17005KT 10SM RA SCT017 BKN070 OVC085 07/04 A3006 RMK AO2 T00650041
Loading
Personal Weather Stations






























Interactive Weather Map
Tropical Storm Tracking
New forecast layout! Learn more

10-Day Weather Forecast

Advertisements
Track Severe Weather on mobile